Time;durP1;ratioP1;P1;durP2;ratioP2;P2;SDS_P1;SDS_P2;PMS_P1;PMS_P2;Temp;Humidity;BMP_temperature;BMP_pressure;BME280_temperature;BME280_humidity;BME280_pressure;Samples;Min_cycle;Max_cycle;Signal;HPM_P1;HPM_P2
2021/11/26 00:01:44;;;;;;;7.93;1.27;;;3.40;99.90;;;;;;5044216;28;20104;-74
2021/11/26 00:04:19;;;;;;;3.35;1.50;;;3.40;99.90;;;;;;5042605;28;20036;-73
2021/11/26 00:06:44;;;;;;;4.88;1.35;;;3.40;99.90;;;;;;5043970;28;20030;-74
2021/11/26 00:09:11;;;;;;;6.25;1.90;;;3.40;99.90;;;;;;5044207;28;20033;-75
2021/11/26 00:11:37;;;;;;;6.68;1.15;;;3.40;99.90;;;;;;5043803;28;20061;-73
2021/11/26 00:16:41;;;;;;;6.65;2.00;;;3.40;99.90;;;;;;5044411;28;20036;-73
2021/11/26 00:19:10;;;;;;;2.70;1.48;;;3.40;99.90;;;;;;5044374;28;20057;-74
2021/11/26 00:21:43;;;;;;;15.75;1.73;;;3.40;99.90;;;;;;5044421;28;20021;-73
2021/11/26 00:24:13;;;;;;;10.75;1.83;;;3.40;99.90;;;;;;5042233;28;20037;-74
2021/11/26 00:26:41;;;;;;;5.60;2.10;;;3.40;99.90;;;;;;5028163;28;20109;-74
2021/11/26 00:29:07;;;;;;;4.90;2.08;;;3.40;99.90;;;;;;5024528;28;20160;-73
2021/11/26 00:31:33;;;;;;;4.55;1.65;;;3.40;99.90;;;;;;5024367;28;20052;-73
2021/11/26 00:33:59;;;;;;;7.63;2.58;;;3.40;99.90;;;;;;5024085;28;20022;-74
2021/11/26 00:36:24;;;;;;;3.80;1.58;;;3.40;99.90;;;;;;5024230;28;20352;-73
2021/11/26 00:38:50;;;;;;;4.90;1.38;;;3.30;99.90;;;;;;5024491;28;20094;-73
2021/11/26 00:41:16;;;;;;;5.40;0.93;;;3.30;99.90;;;;;;5025609;28;20383;-75
2021/11/26 00:43:44;;;;;;;12.05;1.60;;;3.30;99.90;;;;;;5028261;28;20030;-75
2021/11/26 00:46:10;;;;;;;4.85;1.98;;;3.30;99.90;;;;;;5028265;28;20049;-74
2021/11/26 00:48:36;;;;;;;2.88;1.20;;;3.30;99.90;;;;;;5036066;28;20030;-72
2021/11/26 00:51:02;;;;;;;5.80;1.30;;;3.30;99.90;;;;;;5047675;28;20048;-73
2021/11/26 00:53:28;;;;;;;4.20;1.52;;;3.30;99.90;;;;;;5047703;28;20049;-74
2021/11/26 00:55:54;;;;;;;6.60;1.17;;;3.30;99.90;;;;;;5047714;28;20064;-74
2021/11/26 00:58:19;;;;;;;5.68;1.30;;;3.30;99.90;;;;;;5047486;28;20034;-74
2021/11/26 01:00:45;;;;;;;6.45;1.63;;;3.30;99.90;;;;;;5046174;28;20029;-75
2021/11/26 01:03:12;;;;;;;12.73;1.23;;;3.30;99.90;;;;;;5046231;28;20421;-74
2021/11/26 01:05:38;;;;;;;1.88;1.13;;;3.30;99.90;;;;;;5047725;28;20021;-73
2021/11/26 01:08:03;;;;;;;2.42;1.17;;;3.30;99.90;;;;;;5047436;28;20361;-73
2021/11/26 01:10:29;;;;;;;1.90;1.13;;;3.30;99.90;;;;;;5047221;28;20070;-73
2021/11/26 01:12:55;;;;;;;4.38;1.75;;;3.30;99.90;;;;;;5046010;28;20026;-73
2021/11/26 01:15:25;;;;;;;6.05;1.45;;;3.30;99.90;;;;;;5047243;28;20051;-74
2021/11/26 01:17:51;;;;;;;14.27;1.75;;;3.40;99.90;;;;;;5047292;28;20041;-73
2021/11/26 01:20:21;;;;;;;9.30;2.33;;;3.40;99.90;;;;;;5033514;28;20034;-76
2021/11/26 01:22:47;;;;;;;7.40;1.95;;;3.40;99.90;;;;;;5027057;28;20054;-74
2021/11/26 01:25:14;;;;;;;6.28;1.63;;;3.40;99.90;;;;;;5027217;28;20029;-74
2021/11/26 01:27:42;;;;;;;6.97;1.55;;;3.40;99.90;;;;;;5027362;28;20041;-74
2021/11/26 01:30:29;;;;;;;6.25;2.15;;;3.40;99.90;;;;;;5027466;28;20152;-71
2021/11/26 01:32:57;;;;;;;5.88;1.63;;;3.40;99.90;;;;;;5025683;28;20506;-71
2021/11/26 01:35:23;;;;;;;4.03;1.45;;;3.40;99.90;;;;;;5027071;28;20030;-73
2021/11/26 01:37:50;;;;;;;4.97;1.85;;;3.50;99.90;;;;;;5026847;28;20077;-74
2021/11/26 01:40:17;;;;;;;2.47;1.20;;;3.50;99.90;;;;;;5026715;28;20026;-74
2021/11/26 01:42:44;;;;;;;2.83;1.38;;;3.50;99.90;;;;;;5027187;28;20026;-74
2021/11/26 01:45:11;;;;;;;3.05;1.63;;;3.50;99.90;;;;;;5027046;28;20034;-74
2021/11/26 01:47:40;;;;;;;5.47;1.40;;;3.50;99.90;;;;;;5027253;28;20040;-73
2021/11/26 01:50:07;;;;;;;3.15;1.40;;;3.50;99.90;;;;;;5026851;28;20022;-71
2021/11/26 01:52:33;;;;;;;3.17;1.98;;;3.50;99.90;;;;;;5025726;28;20026;-71
2021/11/26 01:54:59;;;;;;;3.33;1.83;;;3.50;99.90;;;;;;5025095;28;20140;-72
2021/11/26 01:57:24;;;;;;;5.15;2.00;;;3.50;99.90;;;;;;5026472;28;20032;-72
2021/11/26 01:59:51;;;;;;;6.80;2.38;;;3.60;99.90;;;;;;5026376;28;20038;-73
2021/11/26 02:02:18;;;;;;;17.17;2.90;;;3.50;99.90;;;;;;5025324;28;20040;-73
2021/11/26 02:04:44;;;;;;;6.93;2.67;;;3.60;99.90;;;;;;5026591;28;20060;-73
2021/11/26 02:07:13;;;;;;;11.13;1.95;;;3.50;99.90;;;;;;5025448;28;20022;-72
2021/11/26 02:09:39;;;;;;;6.28;2.53;;;3.60;99.90;;;;;;5026705;28;20030;-73
2021/11/26 02:12:05;;;;;;;8.05;2.35;;;3.60;99.90;;;;;;5026342;28;20030;-73
2021/11/26 02:14:31;;;;;;;8.48;2.17;;;3.60;99.90;;;;;;5026484;28;20065;-72
2021/11/26 02:16:57;;;;;;;6.68;1.67;;;3.60;99.90;;;;;;5025948;28;20030;-72
2021/11/26 02:19:24;;;;;;;12.18;3.30;;;3.60;99.90;;;;;;5026063;28;20068;-72
2021/11/26 02:21:51;;;;;;;9.43;2.90;;;3.60;99.90;;;;;;5026191;28;20063;-72
2021/11/26 02:24:18;;;;;;;16.50;3.03;;;3.60;99.90;;;;;;5026363;28;20034;-72
2021/11/26 02:26:47;;;;;;;9.65;1.98;;;3.70;99.90;;;;;;5026111;28;20057;-72
2021/11/26 02:29:17;;;;;;;9.52;2.90;;;3.60;99.90;;;;;;5025925;28;20033;-72
2021/11/26 02:31:44;;;;;;;4.10;1.70;;;3.70;99.90;;;;;;5026238;28;20022;-72
2021/11/26 02:34:16;;;;;;;7.95;1.83;;;3.60;99.90;;;;;;5026032;28;20026;-74
2021/11/26 02:36:44;;;;;;;17.80;2.88;;;3.60;99.90;;;;;;5024574;28;20062;-73
2021/11/26 02:39:11;;;;;;;8.30;2.53;;;3.70;99.90;;;;;;5024624;28;20034;-73
2021/11/26 02:41:42;;;;;;;9.82;2.08;;;3.70;99.90;;;;;;5026288;28;20426;-72
2021/11/26 02:44:13;;;;;;;2.97;1.52;;;3.70;99.90;;;;;;5026185;28;20022;-72
2021/11/26 02:46:43;;;;;;;4.38;2.20;;;3.70;99.90;;;;;;5026313;28;20025;-73
2021/11/26 02:49:10;;;;;;;3.60;2.13;;;3.70;99.90;;;;;;5026184;28;20352;-74
2021/11/26 02:51:35;;;;;;;6.90;2.47;;;3.70;99.90;;;;;;5025800;28;20053;-72
2021/11/26 02:54:02;;;;;;;12.30;2.60;;;3.70;99.90;;;;;;5025760;28;20030;-72
2021/11/26 02:56:27;;;;;;;8.05;2.45;;;3.70;99.90;;;;;;5025564;28;20033;-72
2021/11/26 02:58:57;;;;;;;2.58;1.52;;;3.70;99.90;;;;;;5025434;28;20084;-72
2021/11/26 03:01:23;;;;;;;2.75;1.48;;;3.80;99.90;;;;;;5025330;28;20029;-72
2021/11/26 03:03:48;;;;;;;14.32;2.47;;;3.70;99.90;;;;;;5025079;28;20030;-72
2021/11/26 03:06:14;;;;;;;10.88;2.20;;;3.70;99.90;;;;;;5024111;28;20029;-73
2021/11/26 03:08:40;;;;;;;3.05;1.75;;;3.70;99.90;;;;;;5025442;28;20033;-74
2021/11/26 03:11:06;;;;;;;5.40;2.80;;;3.70;99.90;;;;;;5025124;28;20038;-73
2021/11/26 03:13:32;;;;;;;2.85;1.65;;;3.70;99.90;;;;;;5025389;28;20045;-74
2021/11/26 03:15:59;;;;;;;6.20;1.88;;;3.70;99.90;;;;;;5025079;28;20030;-73
2021/11/26 03:18:26;;;;;;;5.93;2.03;;;3.70;99.90;;;;;;5023885;28;20102;-73
2021/11/26 03:20:51;;;;;;;3.63;2.00;;;3.80;99.90;;;;;;5025267;28;20053;-73
2021/11/26 03:23:21;;;;;;;6.25;2.40;;;3.70;99.90;;;;;;5024024;28;20030;-74
2021/11/26 03:25:47;;;;;;;3.42;2.22;;;3.70;99.90;;;;;;5025058;28;20041;-73
2021/11/26 03:28:15;;;;;;;5.57;2.35;;;3.70;99.90;;;;;;5025073;28;20022;-74
2021/11/26 03:30:45;;;;;;;4.13;2.05;;;3.80;99.90;;;;;;5025081;28;20080;-74
2021/11/26 03:33:11;;;;;;;7.55;2.97;;;3.70;99.90;;;;;;5024964;28;20487;-75
2021/11/26 03:35:38;;;;;;;6.15;3.33;;;3.70;99.90;;;;;;5024099;28;20033;-74
2021/11/26 03:38:04;;;;;;;11.15;3.10;;;3.70;99.90;;;;;;5024846;28;20054;-74
2021/11/26 03:40:34;;;;;;;8.88;3.20;;;3.70;99.90;;;;;;5023453;28;20034;-75
2021/11/26 03:43:00;;;;;;;9.82;3.17;;;3.70;99.90;;;;;;5024746;28;20030;-73
2021/11/26 03:45:28;;;;;;;7.32;2.88;;;3.70;99.90;;;;;;5025161;28;20030;-74
2021/11/26 03:47:55;;;;;;;8.27;3.33;;;3.80;99.90;;;;;;5039851;28;20029;-74
2021/11/26 03:50:23;;;;;;;8.02;2.63;;;3.80;99.90;;;;;;5024899;28;20026;-75
2021/11/26 03:52:49;;;;;;;12.40;3.90;;;3.80;99.90;;;;;;5024787;28;20026;-74
2021/11/26 03:55:19;;;;;;;9.50;3.40;;;3.80;99.90;;;;;;5024697;28;20026;-73
2021/11/26 03:57:46;;;;;;;10.40;4.22;;;3.80;99.90;;;;;;5024789;28;20040;-75
2021/11/26 04:00:13;;;;;;;12.35;3.92;;;3.80;99.90;;;;;;5024777;28;20498;-75
2021/11/26 04:02:39;;;;;;;16.45;4.57;;;3.80;99.90;;;;;;5024870;28;20033;-75
2021/11/26 04:05:06;;;;;;;11.27;4.25;;;3.80;99.90;;;;;;5024653;28;20026;-73
2021/11/26 04:07:32;;;;;;;9.60;4.72;;;3.80;99.90;;;;;;5024647;28;20533;-73
2021/11/26 04:09:58;;;;;;;13.07;4.18;;;3.70;99.90;;;;;;5039651;28;20101;-73
2021/11/26 04:12:24;;;;;;;10.57;4.25;;;3.70;99.90;;;;;;5024597;28;20525;-73
2021/11/26 04:14:53;;;;;;;11.05;5.00;;;3.70;99.90;;;;;;5024443;28;20030;-74
2021/11/26 04:17:20;;;;;;;9.32;3.90;;;3.70;99.90;;;;;;5027326;28;20021;-76
2021/11/26 04:19:45;;;;;;;11.07;4.30;;;3.70;99.90;;;;;;5028721;28;20045;-72
2021/11/26 04:22:17;;;;;;;7.88;3.85;;;3.70;99.90;;;;;;5028698;28;20109;-74
2021/11/26 04:24:43;;;;;;;24.45;5.95;;;3.80;99.90;;;;;;5028545;28;20036;-72
2021/11/26 04:27:13;;;;;;;13.00;5.18;;;3.80;99.90;;;;;;5028721;28;20034;-73
2021/11/26 04:29:40;;;;;;;10.85;4.53;;;3.70;99.90;;;;;;5028651;28;20048;-75
2021/11/26 04:32:07;;;;;;;13.77;5.35;;;3.70;99.90;;;;;;5028406;28;20080;-73
2021/11/26 04:34:33;;;;;;;15.68;6.03;;;3.80;99.90;;;;;;5028417;28;20064;-74
2021/11/26 04:37:02;;;;;;;11.63;5.25;;;3.80;99.90;;;;;;5026918;28;20050;-74
2021/11/26 04:39:28;;;;;;;16.27;6.43;;;3.80;99.90;;;;;;5026637;28;20038;-73
2021/11/26 04:41:53;;;;;;;17.75;5.47;;;3.80;99.90;;;;;;5028496;28;20026;-72
2021/11/26 04:44:19;;;;;;;17.35;7.45;;;3.80;99.90;;;;;;5028718;28;20026;-73
2021/11/26 04:46:44;;;;;;;22.95;6.47;;;3.80;99.90;;;;;;5028238;28;20145;-74
2021/11/26 04:49:10;;;;;;;29.75;7.75;;;3.80;99.90;;;;;;5043337;28;20033;-73
2021/11/26 04:51:36;;;;;;;15.38;6.88;;;3.80;99.90;;;;;;5043420;28;20064;-73
2021/11/26 04:54:04;;;;;;;29.52;8.80;;;3.80;99.90;;;;;;5027973;28;20030;-74
2021/11/26 04:56:33;;;;;;;21.35;7.13;;;3.80;99.90;;;;;;5026765;28;20573;-74
2021/11/26 04:58:59;;;;;;;21.98;6.97;;;3.80;99.90;;;;;;5027834;28;20052;-73
2021/11/26 05:01:25;;;;;;;19.70;7.50;;;3.80;99.90;;;;;;5027702;28;20034;-72
2021/11/26 05:03:51;;;;;;;17.73;7.72;;;3.80;99.90;;;;;;5027847;28;20022;-73
2021/11/26 05:06:17;;;;;;;18.40;7.88;;;3.80;99.90;;;;;;5026466;28;20045;-75
2021/11/26 05:08:43;;;;;;;17.58;7.75;;;3.90;99.90;;;;;;5027657;28;20022;-74
2021/11/26 05:11:10;;;;;;;18.67;8.05;;;3.90;99.90;;;;;;5027921;28;20049;-74
2021/11/26 05:13:43;;;;;;;19.00;7.68;;;3.90;99.90;;;;;;5027836;28;20026;-74
2021/11/26 05:16:13;;;;;;;21.85;7.72;;;3.90;99.90;;;;;;5027618;28;20076;-75
2021/11/26 05:18:44;;;;;;;26.98;7.95;;;3.90;99.90;;;;;;5027974;28;20033;-75
2021/11/26 05:21:11;;;;;;;34.38;10.23;;;3.90;99.90;;;;;;5027716;28;20034;-74
2021/11/26 05:23:41;;;;;;;19.67;8.05;;;3.90;99.90;;;;;;5027499;28;20030;-72
2021/11/26 05:26:15;;;;;;;25.75;9.23;;;3.90;99.90;;;;;;5027404;28;20037;-73
2021/11/26 05:28:41;;;;;;;17.98;7.22;;;3.90;99.90;;;;;;5027256;28;20033;-75
2021/11/26 05:31:08;;;;;;;21.80;8.32;;;3.90;99.90;;;;;;5027241;28;20030;-76
2021/11/26 05:33:34;;;;;;;18.02;7.50;;;3.90;99.90;;;;;;5027418;28;20057;-73
2021/11/26 05:36:00;;;;;;;24.58;8.73;;;3.90;99.90;;;;;;5025504;28;20029;-75
2021/11/26 05:38:26;;;;;;;16.80;7.68;;;3.90;99.90;;;;;;5027175;28;20061;-74
2021/11/26 05:40:52;;;;;;;26.60;8.68;;;4.00;99.90;;;;;;5042400;28;20524;-73
2021/11/26 05:43:18;;;;;;;21.52;8.60;;;4.00;99.90;;;;;;5026966;28;20097;-74
2021/11/26 05:45:45;;;;;;;20.17;8.70;;;4.00;99.90;;;;;;5027139;28;20061;-74
2021/11/26 05:48:12;;;;;;;27.85;7.38;;;4.00;99.90;;;;;;5027256;28;20021;-73
2021/11/26 05:50:41;;;;;;;19.58;7.07;;;4.00;99.90;;;;;;5027024;28;20121;-74
2021/11/26 05:53:07;;;;;;;18.08;6.85;;;4.00;99.90;;;;;;5025887;28;20033;-73
2021/11/26 05:55:33;;;;;;;22.83;9.02;;;4.00;99.90;;;;;;5026800;28;20063;-73
2021/11/26 05:58:08;;;;;;;21.45;8.23;;;4.00;99.90;;;;;;5026619;28;20037;-73
2021/11/26 06:00:35;;;;;;;20.00;7.78;;;4.00;99.90;;;;;;5026737;28;20022;-74
2021/11/26 06:03:01;;;;;;;18.73;7.40;;;4.00;99.90;;;;;;5025325;28;20036;-73
2021/11/26 06:05:27;;;;;;;21.70;8.00;;;4.00;99.90;;;;;;5026826;28;20022;-74
2021/11/26 06:07:53;;;;;;;22.75;7.18;;;4.00;99.90;;;;;;5026674;28;20099;-74
2021/11/26 06:10:20;;;;;;;19.38;8.50;;;4.10;99.90;;;;;;5027097;28;20057;-72
2021/11/26 06:12:49;;;;;;;28.88;9.25;;;4.10;99.90;;;;;;5044850;28;20489;-75
2021/11/26 06:15:16;;;;;;;20.90;7.65;;;4.10;99.90;;;;;;5032163;28;20052;-75
2021/11/26 06:17:47;;;;;;;21.35;7.65;;;4.10;99.90;;;;;;5026391;28;20038;-72
2021/11/26 06:20:14;;;;;;;16.90;7.55;;;4.10;99.90;;;;;;5026554;28;20069;-74
2021/11/26 06:22:44;;;;;;;32.00;7.65;;;4.10;99.90;;;;;;5026401;28;20048;-74
2021/11/26 06:25:12;;;;;;;19.73;8.13;;;4.10;99.90;;;;;;5026071;28;20044;-75
2021/11/26 06:27:40;;;;;;;19.10;8.30;;;4.10;99.90;;;;;;5025063;28;20495;-74
2021/11/26 06:30:11;;;;;;;21.00;8.45;;;4.10;99.90;;;;;;5029000;28;20040;-75
2021/11/26 06:32:37;;;;;;;18.77;6.03;;;4.10;99.90;;;;;;5045156;28;20032;-75
2021/11/26 06:35:03;;;;;;;25.27;8.05;;;4.10;99.90;;;;;;5044267;28;20099;-75
2021/11/26 06:37:29;;;;;;;23.60;8.98;;;4.10;99.90;;;;;;5045426;28;20046;-75
2021/11/26 06:39:55;;;;;;;23.10;8.82;;;4.10;99.90;;;;;;5041861;28;20042;-73
2021/11/26 06:42:21;;;;;;;28.02;8.60;;;4.10;99.90;;;;;;5044249;28;20075;-76
2021/11/26 06:44:47;;;;;;;34.85;9.15;;;4.20;99.90;;;;;;5044443;28;20029;-75
2021/11/26 06:47:30;;;;;;;29.85;9.38;;;4.10;99.90;;;;;;5040354;28;20722;-75
2021/11/26 06:49:56;;;;;;;24.80;8.27;;;4.10;99.90;;;;;;5054943;28;20041;-74
2021/11/26 06:52:22;;;;;;;21.42;7.47;;;4.10;99.90;;;;;;5032408;28;20381;-74
2021/11/26 06:54:52;;;;;;;22.02;7.70;;;4.10;99.90;;;;;;5034405;28;20037;-74
2021/11/26 06:57:35;;;;;;;22.60;8.48;;;4.10;99.90;;;;;;5036214;28;20033;-74
2021/11/26 07:00:03;;;;;;;20.60;9.23;;;4.10;99.90;;;;;;5028527;28;20052;-74
2021/11/26 07:02:28;;;;;;;25.35;8.07;;;4.10;99.90;;;;;;5030211;28;20040;-74
2021/11/26 07:04:54;;;;;;;28.27;8.52;;;4.10;99.90;;;;;;5041821;28;20049;-74
2021/11/26 07:07:20;;;;;;;23.35;9.25;;;4.10;99.90;;;;;;5032077;28;20033;-74
2021/11/26 07:09:46;;;;;;;23.98;8.15;;;4.10;99.90;;;;;;5034888;28;20033;-75
2021/11/26 07:12:15;;;;;;;23.95;8.57;;;4.10;99.90;;;;;;5034196;28;20034;-74
2021/11/26 07:14:44;;;;;;;34.30;9.52;;;4.10;99.90;;;;;;5039456;28;20403;-73
2021/11/26 07:17:11;;;;;;;28.45;8.18;;;4.10;99.90;;;;;;5041212;28;20044;-73
2021/11/26 07:20:02;;;;;;;28.85;9.65;;;4.20;99.90;;;;;;5035369;28;20038;-72
2021/11/26 07:22:35;;;;;;;30.58;9.70;;;4.10;99.90;;;;;;5033864;28;20034;-74
2021/11/26 07:25:01;;;;;;;33.67;9.95;;;4.20;99.90;;;;;;5042064;28;20029;-72
2021/11/26 07:27:27;;;;;;;30.48;11.07;;;4.20;99.90;;;;;;5040648;28;20033;-72
2021/11/26 07:29:54;;;;;;;27.75;9.88;;;4.30;99.90;;;;;;5041008;28;20104;-72
2021/11/26 07:32:21;;;;;;;25.55;8.63;;;4.20;99.90;;;;;;5036033;28;20048;-73
2021/11/26 07:34:47;;;;;;;30.13;10.00;;;4.20;99.90;;;;;;5032799;28;20026;-72
2021/11/26 07:37:14;;;;;;;29.15;10.25;;;4.20;99.90;;;;;;5038262;28;20045;-70
2021/11/26 07:39:40;;;;;;;21.45;8.43;;;4.20;99.90;;;;;;5042496;28;20541;-73
2021/11/26 07:42:10;;;;;;;26.75;9.70;;;4.20;99.90;;;;;;5044544;28;20029;-74
2021/11/26 07:44:43;;;;;;;20.17;7.95;;;4.20;99.90;;;;;;5044933;28;20376;-73
2021/11/26 07:47:13;;;;;;;25.98;8.95;;;4.20;99.90;;;;;;5038333;28;20062;-73
2021/11/26 07:49:46;;;;;;;27.83;8.38;;;4.20;99.90;;;;;;5045001;28;20041;-74
2021/11/26 07:52:14;;;;;;;20.83;8.57;;;4.20;99.90;;;;;;5044221;28;20084;-75
2021/11/26 07:54:44;;;;;;;26.48;9.43;;;4.20;99.90;;;;;;5044889;28;20022;-74
2021/11/26 07:57:15;;;;;;;20.23;8.05;;;4.20;99.90;;;;;;5042556;28;20033;-74
2021/11/26 07:59:43;;;;;;;31.33;9.32;;;4.20;99.90;;;;;;5044341;28;20070;-71
2021/11/26 08:02:14;;;;;;;22.90;8.15;;;4.20;99.90;;;;;;5036551;28;20047;-71
2021/11/26 08:04:41;;;;;;;26.23;8.93;;;4.20;99.90;;;;;;5041504;28;20029;-73
2021/11/26 08:07:07;;;;;;;23.27;8.25;;;4.20;99.90;;;;;;5056104;28;20111;-72
2021/11/26 08:09:33;;;;;;;23.17;7.03;;;4.20;99.90;;;;;;5062538;28;20485;-71
2021/11/26 08:11:59;;;;;;;20.10;7.35;;;4.30;99.90;;;;;;5064536;28;20596;-70
2021/11/26 08:14:26;;;;;;;17.90;7.95;;;4.30;99.90;;;;;;5047162;28;20125;-72
2021/11/26 08:16:54;;;;;;;20.23;7.60;;;4.30;99.90;;;;;;5047524;28;20721;-71
2021/11/26 08:19:23;;;;;;;15.80;6.95;;;4.30;99.90;;;;;;5062451;28;20037;-72
2021/11/26 08:21:49;;;;;;;27.45;8.68;;;4.30;99.90;;;;;;5064479;28;20028;-73
2021/11/26 08:24:17;;;;;;;20.35;7.90;;;4.30;99.90;;;;;;5062996;28;20028;-72
2021/11/26 08:26:44;;;;;;;17.52;7.85;;;4.30;99.90;;;;;;5052139;28;20034;-75
2021/11/26 08:29:10;;;;;;;20.58;8.50;;;4.40;99.90;;;;;;5042934;28;20021;-74
2021/11/26 08:31:35;;;;;;;18.45;7.25;;;4.40;99.90;;;;;;5045520;28;20033;-74
2021/11/26 08:34:02;;;;;;;19.33;7.07;;;4.50;99.90;;;;;;5062604;28;20033;-72
2021/11/26 08:36:28;;;;;;;22.70;5.70;;;4.40;99.90;;;;;;5063529;28;20053;-69
2021/11/26 08:39:00;;;;;;;16.23;6.53;;;4.40;99.90;;;;;;5055176;28;20044;-73
2021/11/26 08:41:26;;;;;;;20.98;7.10;;;4.40;99.90;;;;;;5040137;28;20120;-73
2021/11/26 08:43:53;;;;;;;19.38;6.25;;;4.50;99.90;;;;;;5044622;28;20032;-73
2021/11/26 08:46:19;;;;;;;19.52;8.02;;;4.50;99.90;;;;;;5041412;28;20060;-74
2021/11/26 08:48:45;;;;;;;15.15;6.45;;;4.50;99.90;;;;;;5039844;28;20033;-76
2021/11/26 08:51:12;;;;;;;16.60;6.75;;;4.60;99.90;;;;;;5045161;28;20113;-74
2021/11/26 08:53:45;;;;;;;16.58;6.35;;;4.60;99.90;;;;;;5058473;28;20035;-73
2021/11/26 08:56:14;;;;;;;13.90;6.15;;;4.60;99.90;;;;;;5062501;28;20052;-74
2021/11/26 08:58:46;;;;;;;18.45;7.22;;;4.60;99.90;;;;;;5064200;28;20041;-74
2021/11/26 09:01:15;;;;;;;14.55;6.25;;;4.60;99.90;;;;;;5055280;28;20029;-74
2021/11/26 09:03:43;;;;;;;15.35;6.53;;;4.70;99.90;;;;;;5046923;28;20053;-74
2021/11/26 09:06:10;;;;;;;18.48;6.47;;;4.60;99.90;;;;;;5053965;28;20060;-74
2021/11/26 09:08:39;;;;;;;27.05;7.20;;;4.60;99.90;;;;;;5068150;28;20392;-74
2021/11/26 09:11:04;;;;;;;20.23;7.75;;;4.70;99.90;;;;;;5061562;28;20030;-73
2021/11/26 09:13:30;;;;;;;18.65;6.97;;;4.70;99.90;;;;;;5041118;28;20025;-73
2021/11/26 09:15:56;;;;;;;18.55;7.13;;;4.70;99.90;;;;;;5050211;28;20037;-75
2021/11/26 09:18:22;;;;;;;19.83;8.10;;;4.80;99.90;;;;;;5035319;28;20041;-73
2021/11/26 09:20:52;;;;;;;24.98;6.70;;;4.80;99.90;;;;;;5045719;28;20026;-74
2021/11/26 09:23:18;;;;;;;17.50;5.53;;;4.80;99.90;;;;;;5034827;28;20037;-75
2021/11/26 09:25:46;;;;;;;26.38;6.03;;;4.90;99.90;;;;;;5026035;28;20030;-75
2021/11/26 09:28:12;;;;;;;16.35;6.28;;;4.90;99.90;;;;;;5045074;28;20039;-74
2021/11/26 09:30:40;;;;;;;21.98;7.95;;;5.00;99.90;;;;;;5045574;28;20104;-71
2021/11/26 09:33:06;;;;;;;10.05;5.50;;;5.00;99.90;;;;;;5043506;28;20025;-74
2021/11/26 09:35:32;;;;;;;16.00;6.05;;;5.00;99.90;;;;;;5038169;28;20030;-74
2021/11/26 09:37:59;;;;;;;12.60;5.82;;;5.10;99.90;;;;;;5045715;28;20045;-73
2021/11/26 09:40:29;;;;;;;20.85;6.43;;;5.00;99.90;;;;;;5043099;28;20033;-74
2021/11/26 09:42:55;;;;;;;23.83;6.15;;;5.00;99.90;;;;;;5034376;28;20021;-72
2021/11/26 09:45:24;;;;;;;17.02;5.70;;;5.20;99.90;;;;;;5037326;28;20051;-73
2021/11/26 09:48:02;;;;;;;13.38;6.13;;;5.20;99.90;;;;;;5048755;28;20025;-74
2021/11/26 09:50:32;;;;;;;16.63;6.38;;;5.10;99.90;;;;;;5031522;28;20030;-74
2021/11/26 09:53:22;;;;;;;19.15;6.63;;;5.10;99.90;;;;;;5033234;28;20034;-74
2021/11/26 09:55:57;;;;;;;9.40;4.60;;;5.20;99.90;;;;;;5034491;28;20040;-72
2021/11/26 09:58:24;;;;;;;19.45;6.20;;;5.20;99.90;;;;;;5038204;28;20037;-74
2021/11/26 10:00:51;;;;;;;14.32;5.80;;;5.20;99.90;;;;;;5031449;28;20026;-74
2021/11/26 10:03:18;;;;;;;19.95;6.47;;;5.20;99.90;;;;;;5034763;28;20030;-76
2021/11/26 10:05:48;;;;;;;17.15;6.20;;;5.30;99.90;;;;;;5033601;28;20029;-73
2021/11/26 10:08:24;;;;;;;14.88;5.10;;;5.20;99.90;;;;;;5034105;28;20029;-72
2021/11/26 10:10:58;;;;;;;14.48;4.90;;;5.20;99.90;;;;;;5029415;28;20057;-75
2021/11/26 10:13:23;;;;;;;15.15;5.38;;;5.20;99.90;;;;;;5029556;28;20446;-74
2021/11/26 10:15:51;;;;;;;23.60;7.18;;;5.20;99.90;;;;;;5031527;28;20053;-73
2021/11/26 10:18:26;;;;;;;18.02;6.28;;;5.20;99.90;;;;;;5029152;28;20029;-75
2021/11/26 10:21:02;;;;;;;11.48;5.25;;;5.20;99.90;;;;;;5035311;28;20032;-76
2021/11/26 10:23:32;;;;;;;12.27;5.20;;;5.20;99.90;;;;;;5037422;28;20030;-75
2021/11/26 10:26:19;;;;;;;14.38;6.10;;;5.20;99.90;;;;;;5036971;28;20034;-75
2021/11/26 10:29:01;;;;;;;13.30;5.15;;;5.40;99.90;;;;;;5028538;28;20047;-74
2021/11/26 10:31:32;;;;;;;12.27;4.97;;;5.30;99.90;;;;;;5031100;28;20161;-74
2021/11/26 10:34:03;;;;;;;21.42;6.03;;;5.30;99.90;;;;;;5035830;28;20018;-73
2021/11/26 10:36:43;;;;;;;11.55;4.65;;;5.30;99.90;;;;;;5040807;28;20041;-76
2021/11/26 10:39:16;;;;;;;10.65;4.95;;;5.40;99.90;;;;;;5045677;28;20045;-75
2021/11/26 10:41:51;;;;;;;18.75;5.97;;;5.40;99.90;;;;;;5026570;28;20046;-77
2021/11/26 10:44:20;;;;;;;12.45;5.70;;;5.40;99.90;;;;;;5026015;28;20029;-77
2021/11/26 10:49:51;;;;;;;13.93;5.57;;;5.50;99.90;;;;;;5025991;28;20037;-77
2021/11/26 10:58:03;;;;;;;;;;;5.60;99.90;;;;;;5039858;28;20673;-76
2021/11/26 11:00:34;;;;;;;11.35;4.53;;;5.60;99.90;;;;;;5045629;28;19974;-74
2021/11/26 11:03:00;;;;;;;10.75;3.92;;;5.60;99.90;;;;;;5033522;28;20061;-75
2021/11/26 11:05:38;;;;;;;16.88;6.03;;;5.60;99.90;;;;;;5039385;28;20030;-77
2021/11/26 11:08:33;;;;;;;11.10;4.25;;;5.70;99.90;;;;;;5035000;28;20029;-77
2021/11/26 11:11:04;;;;;;;8.68;3.85;;;5.80;99.90;;;;;;5034557;28;20049;-75
2021/11/26 11:13:30;;;;;;;14.25;4.60;;;6.00;99.90;;;;;;5044418;28;20831;-74
2021/11/26 11:16:12;;;;;;;9.85;4.90;;;6.10;99.90;;;;;;5043272;28;20040;-74
2021/11/26 11:18:49;;;;;;;11.77;4.38;;;6.10;99.90;;;;;;5042102;28;20114;-77
2021/11/26 11:21:18;;;;;;;18.33;5.70;;;6.20;99.90;;;;;;5041246;28;20032;-74
2021/11/26 11:23:49;;;;;;;13.95;5.22;;;6.30;99.90;;;;;;5027989;28;20120;-76
2021/11/26 11:26:26;;;;;;;13.43;6.05;;;6.30;99.90;;;;;;5030097;28;20031;-77
2021/11/26 11:28:52;;;;;;;14.73;4.55;;;6.30;99.90;;;;;;5032785;28;20044;-73
2021/11/26 11:31:24;;;;;;;18.33;3.60;;;6.30;99.90;;;;;;5030608;28;20033;-75
2021/11/26 11:33:51;;;;;;;11.98;4.72;;;6.20;99.90;;;;;;5024521;28;20038;-75
2021/11/26 11:36:27;;;;;;;10.45;3.97;;;6.20;99.90;;;;;;5035973;28;20056;-76
2021/11/26 11:39:11;;;;;;;16.55;3.95;;;6.10;99.90;;;;;;5042790;28;20049;-75
2021/11/26 11:42:05;;;;;;;8.75;4.05;;;6.10;99.90;;;;;;5032875;28;20572;-73
2021/11/26 11:44:33;;;;;;;15.45;4.68;;;6.10;99.90;;;;;;5039630;28;20490;-73
2021/11/26 11:47:24;;;;;;;9.00;4.43;;;6.00;99.90;;;;;;5024412;28;20037;-73
2021/11/26 11:49:49;;;;;;;9.52;3.72;;;6.00;99.90;;;;;;5041229;28;20029;-78
2021/11/26 11:52:24;;;;;;;6.00;3.00;;;6.00;99.90;;;;;;5043497;28;20032;-76
2021/11/26 11:54:50;;;;;;;6.45;3.35;;;6.00;99.90;;;;;;5042222;28;20014;-74
2021/11/26 11:57:43;;;;;;;13.00;4.22;;;6.00;99.90;;;;;;5044209;28;20075;-76
2021/11/26 12:00:18;;;;;;;12.30;3.72;;;6.00;99.90;;;;;;5044106;28;20064;-74
2021/11/26 12:02:49;;;;;;;13.30;4.53;;;6.00;99.90;;;;;;5042263;28;20557;-78
2021/11/26 12:05:26;;;;;;;7.97;3.85;;;6.00;99.90;;;;;;5044171;28;20041;-74
2021/11/26 12:08:11;;;;;;;8.43;3.90;;;6.00;99.90;;;;;;5042776;28;20071;-75
2021/11/26 12:10:59;;;;;;;10.13;3.80;;;6.00;99.90;;;;;;5042411;28;20036;-76
2021/11/26 12:13:36;;;;;;;8.65;3.25;;;6.00;99.90;;;;;;5034259;28;20438;-77
2021/11/26 12:16:06;;;;;;;7.35;3.30;;;6.10;99.90;;;;;;5043375;28;20472;-75
2021/11/26 12:18:45;;;;;;;9.23;2.85;;;6.00;99.90;;;;;;5041851;28;20049;-74
2021/11/26 12:21:17;;;;;;;7.13;3.30;;;6.00;99.90;;;;;;5031777;28;20087;-77
2021/11/26 12:23:57;;;;;;;7.35;3.63;;;5.90;99.90;;;;;;5043888;28;20040;-75
2021/11/26 12:26:27;;;;;;;8.75;3.20;;;6.00;99.90;;;;;;5043833;28;20033;-76
2021/11/26 12:29:03;;;;;;;6.57;2.97;;;5.90;99.90;;;;;;5042466;28;20451;-73
2021/11/26 12:31:30;;;;;;;9.50;3.88;;;6.10;99.90;;;;;;5042354;28;20022;-76
2021/11/26 12:34:03;;;;;;;7.32;3.17;;;6.00;99.90;;;;;;5041729;28;20030;-73
2021/11/26 12:36:50;;;;;;;6.63;3.17;;;6.00;99.90;;;;;;5037863;28;20128;-76
2021/11/26 12:39:34;;;;;;;7.15;3.42;;;6.00;99.90;;;;;;5045328;28;20068;-77
2021/11/26 12:42:00;;;;;;;7.75;3.60;;;5.90;99.90;;;;;;5029501;28;20406;-77
2021/11/26 12:44:34;;;;;;;5.85;2.65;;;6.00;99.90;;;;;;5037629;28;20018;-74
2021/11/26 12:47:08;;;;;;;9.88;3.25;;;6.00;99.90;;;;;;5044055;28;20021;-76
2021/11/26 12:52:26;;;;;;;9.88;2.92;;;6.00;99.90;;;;;;5028392;28;20467;-74
2021/11/26 12:54:53;;;;;;;10.70;3.47;;;6.00;99.90;;;;;;5027909;28;20148;-72
2021/11/26 12:57:24;;;;;;;9.07;3.15;;;5.90;99.90;;;;;;5026435;28;20252;-73
2021/11/26 12:59:56;;;;;;;11.40;4.15;;;5.90;99.90;;;;;;5027926;28;20089;-73
2021/11/26 13:02:28;;;;;;;10.15;3.60;;;5.80;99.90;;;;;;5027557;28;20026;-73
2021/11/26 13:05:00;;;;;;;10.55;4.07;;;5.80;99.90;;;;;;5027272;28;20052;-73
2021/11/26 13:07:28;;;;;;;22.20;3.55;;;6.00;99.90;;;;;;5027899;28;20109;-72
2021/11/26 13:09:59;;;;;;;8.88;3.47;;;5.80;99.90;;;;;;5026461;28;20030;-73
2021/11/26 13:12:37;;;;;;;6.32;2.35;;;5.80;99.90;;;;;;5027782;28;20054;-76
2021/11/26 13:15:09;;;;;;;8.63;2.45;;;5.80;99.90;;;;;;5026492;28;20040;-76